sensor_id;sensor_type;location;lat;lon;timestamp;P1;durP1;ratioP1;P2;durP2;ratioP2
68234;SDS011;55052;52.056;5.296;2023-01-13T00:01:14;18.88;;;4.20;;
68234;SDS011;55052;52.056;5.296;2023-01-13T00:03:43;25.55;;;4.50;;
68234;SDS011;55052;52.056;5.296;2023-01-13T00:06:11;20.85;;;3.90;;
68234;SDS011;55052;52.056;5.296;2023-01-13T00:08:39;36.50;;;4.50;;
68234;SDS011;55052;52.056;5.296;2023-01-13T00:11:06;28.92;;;5.15;;
68234;SDS011;55052;52.056;5.296;2023-01-13T00:13:32;29.35;;;4.38;;
68234;SDS011;55052;52.056;5.296;2023-01-13T00:18:30;25.53;;;4.10;;
68234;SDS011;55052;52.056;5.296;2023-01-13T00:23:29;27.13;;;4.30;;
68234;SDS011;55052;52.056;5.296;2023-01-13T00:25:58;25.20;;;3.88;;
68234;SDS011;55052;52.056;5.296;2023-01-13T00:28:27;23.52;;;3.72;;
68234;SDS011;55052;52.056;5.296;2023-01-13T00:30:54;27.05;;;4.85;;
68234;SDS011;55052;52.056;5.296;2023-01-13T00:33:24;22.27;;;4.05;;
68234;SDS011;55052;52.056;5.296;2023-01-13T00:35:57;24.80;;;4.40;;
68234;SDS011;55052;52.056;5.296;2023-01-13T00:38:25;23.50;;;4.00;;
68234;SDS011;55052;52.056;5.296;2023-01-13T00:40:56;30.13;;;5.05;;
68234;SDS011;55052;52.056;5.296;2023-01-13T00:43:28;28.67;;;4.45;;
68234;SDS011;55052;52.056;5.296;2023-01-13T00:45:56;31.73;;;4.45;;
68234;SDS011;55052;52.056;5.296;2023-01-13T00:48:24;26.95;;;3.53;;
68234;SDS011;55052;52.056;5.296;2023-01-13T00:50:55;24.88;;;3.63;;
68234;SDS011;55052;52.056;5.296;2023-01-13T00:53:26;19.17;;;3.45;;
68234;SDS011;55052;52.056;5.296;2023-01-13T00:56:00;30.13;;;4.43;;
68234;SDS011;55052;52.056;5.296;2023-01-13T00:58:39;34.03;;;4.60;;
68234;SDS011;55052;52.056;5.296;2023-01-13T01:01:10;25.95;;;3.38;;
68234;SDS011;55052;52.056;5.296;2023-01-13T01:03:39;26.63;;;3.65;;
68234;SDS011;55052;52.056;5.296;2023-01-13T01:06:13;26.70;;;3.85;;
68234;SDS011;55052;52.056;5.296;2023-01-13T01:08:42;28.35;;;4.20;;
68234;SDS011;55052;52.056;5.296;2023-01-13T01:11:11;29.42;;;5.25;;
68234;SDS011;55052;52.056;5.296;2023-01-13T01:13:39;22.80;;;4.22;;
68234;SDS011;55052;52.056;5.296;2023-01-13T01:16:08;26.48;;;4.65;;
68234;SDS011;55052;52.056;5.296;2023-01-13T01:18:37;34.03;;;4.20;;
68234;SDS011;55052;52.056;5.296;2023-01-13T01:21:06;24.98;;;4.45;;
68234;SDS011;55052;52.056;5.296;2023-01-13T01:23:34;35.53;;;5.22;;
68234;SDS011;55052;52.056;5.296;2023-01-13T01:26:02;28.92;;;4.25;;
68234;SDS011;55052;52.056;5.296;2023-01-13T01:28:33;25.30;;;3.85;;
68234;SDS011;55052;52.056;5.296;2023-01-13T01:31:07;29.38;;;4.18;;
68234;SDS011;55052;52.056;5.296;2023-01-13T01:33:36;27.30;;;4.20;;
68234;SDS011;55052;52.056;5.296;2023-01-13T01:36:03;23.00;;;4.03;;
68234;SDS011;55052;52.056;5.296;2023-01-13T01:38:30;28.77;;;5.15;;
68234;SDS011;55052;52.056;5.296;2023-01-13T01:40:56;30.55;;;4.20;;
68234;SDS011;55052;52.056;5.296;2023-01-13T01:46:39;22.38;;;3.75;;
68234;SDS011;55052;52.056;5.296;2023-01-13T01:49:29;33.88;;;4.28;;
68234;SDS011;55052;52.056;5.296;2023-01-13T01:52:03;29.35;;;4.35;;
68234;SDS011;55052;52.056;5.296;2023-01-13T01:54:39;23.60;;;3.92;;
68234;SDS011;55052;52.056;5.296;2023-01-13T01:57:14;30.45;;;4.07;;
68234;SDS011;55052;52.056;5.296;2023-01-13T01:59:48;29.13;;;4.28;;
68234;SDS011;55052;52.056;5.296;2023-01-13T02:02:15;26.33;;;4.30;;
68234;SDS011;55052;52.056;5.296;2023-01-13T02:04:43;26.90;;;4.47;;
68234;SDS011;55052;52.056;5.296;2023-01-13T02:07:20;33.28;;;5.28;;
68234;SDS011;55052;52.056;5.296;2023-01-13T02:09:50;38.67;;;4.38;;
68234;SDS011;55052;52.056;5.296;2023-01-13T02:12:19;35.35;;;5.15;;
68234;SDS011;55052;52.056;5.296;2023-01-13T02:14:55;27.60;;;4.53;;
68234;SDS011;55052;52.056;5.296;2023-01-13T02:35:09;28.10;;;4.88;;
68234;SDS011;55052;52.056;5.296;2023-01-13T02:37:43;25.30;;;4.10;;
68234;SDS011;55052;52.056;5.296;2023-01-13T02:40:12;26.65;;;4.90;;
68234;SDS011;55052;52.056;5.296;2023-01-13T02:42:48;31.30;;;5.63;;
68234;SDS011;55052;52.056;5.296;2023-01-13T02:45:58;23.77;;;4.38;;
68234;SDS011;55052;52.056;5.296;2023-01-13T02:48:47;21.45;;;4.22;;
68234;SDS011;55052;52.056;5.296;2023-01-13T02:51:18;23.30;;;4.78;;
68234;SDS011;55052;52.056;5.296;2023-01-13T02:53:59;27.65;;;4.30;;
68234;SDS011;55052;52.056;5.296;2023-01-13T02:56:38;25.85;;;4.45;;
68234;SDS011;55052;52.056;5.296;2023-01-13T02:59:07;30.42;;;4.40;;
68234;SDS011;55052;52.056;5.296;2023-01-13T03:01:35;27.52;;;3.95;;
68234;SDS011;55052;52.056;5.296;2023-01-13T03:04:41;30.38;;;3.85;;
68234;SDS011;55052;52.056;5.296;2023-01-13T03:09:58;20.73;;;4.30;;
68234;SDS011;55052;52.056;5.296;2023-01-13T03:24:41;22.85;;;4.20;;
68234;SDS011;55052;52.056;5.296;2023-01-13T03:27:19;24.85;;;4.07;;
68234;SDS011;55052;52.056;5.296;2023-01-13T03:29:55;30.70;;;4.35;;
68234;SDS011;55052;52.056;5.296;2023-01-13T03:35:08;21.08;;;3.80;;
68234;SDS011;55052;52.056;5.296;2023-01-13T03:37:41;26.90;;;4.28;;
68234;SDS011;55052;52.056;5.296;2023-01-13T03:40:13;24.52;;;3.90;;
68234;SDS011;55052;52.056;5.296;2023-01-13T03:42:45;22.15;;;3.72;;
68234;SDS011;55052;52.056;5.296;2023-01-13T03:48:04;26.98;;;4.13;;
68234;SDS011;55052;52.056;5.296;2023-01-13T03:51:09;24.50;;;3.92;;
68234;SDS011;55052;52.056;5.296;2023-01-13T03:53:32;25.60;;;3.60;;
68234;SDS011;55052;52.056;5.296;2023-01-13T03:56:05;18.63;;;4.03;;
68234;SDS011;55052;52.056;5.296;2023-01-13T03:58:36;22.40;;;3.50;;
68234;SDS011;55052;52.056;5.296;2023-01-13T04:03:41;18.10;;;3.15;;
68234;SDS011;55052;52.056;5.296;2023-01-13T04:11:45;18.52;;;3.00;;
68234;SDS011;55052;52.056;5.296;2023-01-13T04:14:18;14.20;;;2.85;;
68234;SDS011;55052;52.056;5.296;2023-01-13T04:16:47;14.30;;;2.67;;
68234;SDS011;55052;52.056;5.296;2023-01-13T04:19:14;11.73;;;2.92;;
68234;SDS011;55052;52.056;5.296;2023-01-13T04:21:41;17.02;;;2.58;;
68234;SDS011;55052;52.056;5.296;2023-01-13T04:24:08;9.70;;;2.38;;
68234;SDS011;55052;52.056;5.296;2023-01-13T04:26:35;14.77;;;2.25;;
68234;SDS011;55052;52.056;5.296;2023-01-13T04:29:01;17.55;;;2.78;;
68234;SDS011;55052;52.056;5.296;2023-01-13T04:31:28;17.30;;;2.65;;
68234;SDS011;55052;52.056;5.296;2023-01-13T04:33:55;12.15;;;2.17;;
68234;SDS011;55052;52.056;5.296;2023-01-13T04:36:22;14.02;;;2.00;;
68234;SDS011;55052;52.056;5.296;2023-01-13T04:38:53;18.60;;;3.05;;
68234;SDS011;55052;52.056;5.296;2023-01-13T04:41:20;10.43;;;1.88;;
68234;SDS011;55052;52.056;5.296;2023-01-13T04:43:47;12.02;;;2.20;;
68234;SDS011;55052;52.056;5.296;2023-01-13T04:46:13;12.10;;;2.08;;
68234;SDS011;55052;52.056;5.296;2023-01-13T04:48:40;13.45;;;2.28;;
68234;SDS011;55052;52.056;5.296;2023-01-13T04:51:07;10.25;;;1.70;;
68234;SDS011;55052;52.056;5.296;2023-01-13T04:53:34;9.88;;;2.50;;
68234;SDS011;55052;52.056;5.296;2023-01-13T04:56:01;9.95;;;2.20;;
68234;SDS011;55052;52.056;5.296;2023-01-13T04:58:27;11.88;;;2.42;;
68234;SDS011;55052;52.056;5.296;2023-01-13T05:00:54;13.93;;;1.83;;
68234;SDS011;55052;52.056;5.296;2023-01-13T05:03:21;9.00;;;2.30;;
68234;SDS011;55052;52.056;5.296;2023-01-13T05:05:50;13.13;;;1.98;;
68234;SDS011;55052;52.056;5.296;2023-01-13T05:08:17;10.75;;;1.90;;
68234;SDS011;55052;52.056;5.296;2023-01-13T05:10:43;12.20;;;2.67;;
68234;SDS011;55052;52.056;5.296;2023-01-13T05:13:10;13.15;;;1.88;;
68234;SDS011;55052;52.056;5.296;2023-01-13T05:15:56;11.73;;;2.05;;
68234;SDS011;55052;52.056;5.296;2023-01-13T05:18:41;11.35;;;1.83;;
68234;SDS011;55052;52.056;5.296;2023-01-13T05:21:08;10.30;;;2.10;;
68234;SDS011;55052;52.056;5.296;2023-01-13T05:23:55;10.75;;;2.10;;
68234;SDS011;55052;52.056;5.296;2023-01-13T05:26:40;12.10;;;2.83;;
68234;SDS011;55052;52.056;5.296;2023-01-13T05:29:07;14.85;;;2.28;;
68234;SDS011;55052;52.056;5.296;2023-01-13T05:31:33;14.57;;;2.83;;
68234;SDS011;55052;52.056;5.296;2023-01-13T05:34:00;19.33;;;2.78;;
68234;SDS011;55052;52.056;5.296;2023-01-13T05:36:27;14.73;;;2.38;;
68234;SDS011;55052;52.056;5.296;2023-01-13T05:38:54;18.38;;;2.72;;
68234;SDS011;55052;52.056;5.296;2023-01-13T05:41:21;15.68;;;2.90;;
68234;SDS011;55052;52.056;5.296;2023-01-13T05:44:06;14.13;;;2.83;;
68234;SDS011;55052;52.056;5.296;2023-01-13T05:46:33;14.13;;;2.78;;
68234;SDS011;55052;52.056;5.296;2023-01-13T05:49:00;17.88;;;2.30;;
68234;SDS011;55052;52.056;5.296;2023-01-13T05:51:27;15.60;;;2.90;;
68234;SDS011;55052;52.056;5.296;2023-01-13T05:53:53;13.65;;;2.42;;
68234;SDS011;55052;52.056;5.296;2023-01-13T05:56:20;12.32;;;2.05;;
68234;SDS011;55052;52.056;5.296;2023-01-13T05:58:47;16.85;;;3.10;;
68234;SDS011;55052;52.056;5.296;2023-01-13T06:01:14;9.52;;;2.40;;
68234;SDS011;55052;52.056;5.296;2023-01-13T06:03:41;17.52;;;2.75;;
68234;SDS011;55052;52.056;5.296;2023-01-13T06:06:07;17.88;;;2.95;;
68234;SDS011;55052;52.056;5.296;2023-01-13T06:08:34;17.35;;;2.85;;
68234;SDS011;55052;52.056;5.296;2023-01-13T06:11:04;16.50;;;2.60;;
68234;SDS011;55052;52.056;5.296;2023-01-13T06:13:31;11.60;;;3.03;;
68234;SDS011;55052;52.056;5.296;2023-01-13T06:15:58;15.73;;;2.40;;
68234;SDS011;55052;52.056;5.296;2023-01-13T06:18:25;15.18;;;2.75;;
68234;SDS011;55052;52.056;5.296;2023-01-13T06:20:52;17.52;;;2.90;;
68234;SDS011;55052;52.056;5.296;2023-01-13T06:23:19;12.05;;;2.47;;
68234;SDS011;55052;52.056;5.296;2023-01-13T06:25:48;15.50;;;2.55;;
68234;SDS011;55052;52.056;5.296;2023-01-13T06:28:24;16.92;;;3.30;;
68234;SDS011;55052;52.056;5.296;2023-01-13T06:30:53;13.10;;;2.80;;
68234;SDS011;55052;52.056;5.296;2023-01-13T06:33:25;15.23;;;2.88;;
68234;SDS011;55052;52.056;5.296;2023-01-13T06:35:57;19.98;;;3.20;;
68234;SDS011;55052;52.056;5.296;2023-01-13T06:38:28;13.98;;;2.83;;
68234;SDS011;55052;52.056;5.296;2023-01-13T06:40:56;19.92;;;3.78;;
68234;SDS011;55052;52.056;5.296;2023-01-13T06:43:23;11.45;;;2.55;;
68234;SDS011;55052;52.056;5.296;2023-01-13T06:45:50;14.30;;;2.85;;
68234;SDS011;55052;52.056;5.296;2023-01-13T06:48:21;15.35;;;3.97;;
68234;SDS011;55052;52.056;5.296;2023-01-13T06:50:50;12.60;;;2.78;;
68234;SDS011;55052;52.056;5.296;2023-01-13T06:53:17;22.35;;;3.40;;
68234;SDS011;55052;52.056;5.296;2023-01-13T06:55:43;18.73;;;2.88;;
68234;SDS011;55052;52.056;5.296;2023-01-13T06:58:10;16.30;;;2.53;;
68234;SDS011;55052;52.056;5.296;2023-01-13T07:00:38;23.08;;;4.18;;
68234;SDS011;55052;52.056;5.296;2023-01-13T07:03:05;15.00;;;2.83;;
68234;SDS011;55052;52.056;5.296;2023-01-13T07:05:42;16.45;;;2.90;;
68234;SDS011;55052;52.056;5.296;2023-01-13T07:08:15;15.55;;;2.70;;
68234;SDS011;55052;52.056;5.296;2023-01-13T07:10:42;15.18;;;2.95;;
68234;SDS011;55052;52.056;5.296;2023-01-13T07:13:09;22.38;;;3.28;;
68234;SDS011;55052;52.056;5.296;2023-01-13T07:15:58;14.43;;;2.78;;
68234;SDS011;55052;52.056;5.296;2023-01-13T07:18:27;15.40;;;3.00;;
68234;SDS011;55052;52.056;5.296;2023-01-13T07:20:58;17.50;;;2.80;;
68234;SDS011;55052;52.056;5.296;2023-01-13T07:23:27;21.08;;;3.30;;
68234;SDS011;55052;52.056;5.296;2023-01-13T07:25:56;17.60;;;2.90;;
68234;SDS011;55052;52.056;5.296;2023-01-13T07:28:23;22.73;;;2.83;;
68234;SDS011;55052;52.056;5.296;2023-01-13T07:30:51;23.25;;;3.05;;
68234;SDS011;55052;52.056;5.296;2023-01-13T07:33:18;16.58;;;3.03;;
68234;SDS011;55052;52.056;5.296;2023-01-13T07:35:45;23.95;;;4.22;;
68234;SDS011;55052;52.056;5.296;2023-01-13T07:38:13;14.70;;;2.90;;
68234;SDS011;55052;52.056;5.296;2023-01-13T07:40:40;20.83;;;3.45;;
68234;SDS011;55052;52.056;5.296;2023-01-13T07:43:08;18.77;;;2.80;;
68234;SDS011;55052;52.056;5.296;2023-01-13T07:45:56;18.05;;;3.35;;
68234;SDS011;55052;52.056;5.296;2023-01-13T07:48:28;17.33;;;3.05;;
68234;SDS011;55052;52.056;5.296;2023-01-13T07:50:59;16.48;;;2.88;;
68234;SDS011;55052;52.056;5.296;2023-01-13T07:53:27;13.85;;;3.55;;
68234;SDS011;55052;52.056;5.296;2023-01-13T07:55:55;20.05;;;4.32;;
68234;SDS011;55052;52.056;5.296;2023-01-13T07:58:25;16.70;;;3.17;;
68234;SDS011;55052;52.056;5.296;2023-01-13T08:00:52;18.85;;;3.47;;
68234;SDS011;55052;52.056;5.296;2023-01-13T08:03:21;16.35;;;3.15;;
68234;SDS011;55052;52.056;5.296;2023-01-13T08:05:48;20.65;;;3.22;;
68234;SDS011;55052;52.056;5.296;2023-01-13T08:08:15;16.98;;;3.30;;
68234;SDS011;55052;52.056;5.296;2023-01-13T08:10:41;20.85;;;3.97;;
68234;SDS011;55052;52.056;5.296;2023-01-13T08:13:13;19.52;;;3.38;;
68234;SDS011;55052;52.056;5.296;2023-01-13T08:15:48;17.45;;;3.00;;
68234;SDS011;55052;52.056;5.296;2023-01-13T08:18:17;15.70;;;3.70;;
68234;SDS011;55052;52.056;5.296;2023-01-13T08:23:14;23.63;;;3.38;;
68234;SDS011;55052;52.056;5.296;2023-01-13T08:25:41;22.20;;;3.42;;
68234;SDS011;55052;52.056;5.296;2023-01-13T08:28:08;15.65;;;3.25;;
68234;SDS011;55052;52.056;5.296;2023-01-13T08:30:35;15.75;;;2.70;;
68234;SDS011;55052;52.056;5.296;2023-01-13T08:33:04;19.70;;;4.07;;
68234;SDS011;55052;52.056;5.296;2023-01-13T08:35:34;17.88;;;3.42;;
68234;SDS011;55052;52.056;5.296;2023-01-13T08:38:02;15.45;;;3.00;;
68234;SDS011;55052;52.056;5.296;2023-01-13T08:40:30;15.10;;;3.35;;
68234;SDS011;55052;52.056;5.296;2023-01-13T08:42:58;23.75;;;3.40;;
68234;SDS011;55052;52.056;5.296;2023-01-13T08:45:25;22.73;;;3.80;;
68234;SDS011;55052;52.056;5.296;2023-01-13T08:47:52;22.65;;;4.55;;
68234;SDS011;55052;52.056;5.296;2023-01-13T08:50:19;20.92;;;3.33;;
68234;SDS011;55052;52.056;5.296;2023-01-13T08:52:46;19.60;;;3.53;;
68234;SDS011;55052;52.056;5.296;2023-01-13T08:55:13;18.80;;;3.60;;
68234;SDS011;55052;52.056;5.296;2023-01-13T08:57:40;26.08;;;3.67;;
68234;SDS011;55052;52.056;5.296;2023-01-13T09:00:07;20.80;;;3.40;;
68234;SDS011;55052;52.056;5.296;2023-01-13T09:02:34;17.52;;;3.15;;
68234;SDS011;55052;52.056;5.296;2023-01-13T09:05:04;20.35;;;3.70;;
68234;SDS011;55052;52.056;5.296;2023-01-13T09:07:33;21.65;;;3.25;;
68234;SDS011;55052;52.056;5.296;2023-01-13T09:10:01;25.73;;;3.90;;
68234;SDS011;55052;52.056;5.296;2023-01-13T09:12:31;20.02;;;3.50;;
68234;SDS011;55052;52.056;5.296;2023-01-13T09:15:17;17.85;;;2.65;;
68234;SDS011;55052;52.056;5.296;2023-01-13T09:17:44;16.20;;;3.25;;
68234;SDS011;55052;52.056;5.296;2023-01-13T09:20:11;18.40;;;3.40;;
68234;SDS011;55052;52.056;5.296;2023-01-13T09:22:38;17.90;;;3.13;;
68234;SDS011;55052;52.056;5.296;2023-01-13T09:25:06;17.15;;;3.45;;
68234;SDS011;55052;52.056;5.296;2023-01-13T09:27:33;22.48;;;4.15;;
68234;SDS011;55052;52.056;5.296;2023-01-13T09:30:00;23.88;;;3.67;;
68234;SDS011;55052;52.056;5.296;2023-01-13T09:32:27;15.63;;;2.80;;
68234;SDS011;55052;52.056;5.296;2023-01-13T09:34:54;25.73;;;4.53;;
68234;SDS011;55052;52.056;5.296;2023-01-13T09:37:27;17.98;;;4.35;;
68234;SDS011;55052;52.056;5.296;2023-01-13T09:40:02;25.63;;;3.42;;
68234;SDS011;55052;52.056;5.296;2023-01-13T09:42:45;14.82;;;3.05;;
68234;SDS011;55052;52.056;5.296;2023-01-13T09:45:45;20.38;;;3.70;;
68234;SDS011;55052;52.056;5.296;2023-01-13T09:53:53;20.80;;;4.00;;
68234;SDS011;55052;52.056;5.296;2023-01-13T09:56:25;18.33;;;3.03;;
68234;SDS011;55052;52.056;5.296;2023-01-13T09:58:52;15.23;;;3.17;;
68234;SDS011;55052;52.056;5.296;2023-01-13T10:01:22;19.33;;;3.58;;
68234;SDS011;55052;52.056;5.296;2023-01-13T10:04:08;17.83;;;3.25;;
68234;SDS011;55052;52.056;5.296;2023-01-13T10:06:38;20.45;;;3.35;;
68234;SDS011;55052;52.056;5.296;2023-01-13T10:11:54;22.55;;;3.38;;
68234;SDS011;55052;52.056;5.296;2023-01-13T10:14:50;25.42;;;4.38;;
68234;SDS011;55052;52.056;5.296;2023-01-13T10:23:32;16.35;;;3.42;;
68234;SDS011;55052;52.056;5.296;2023-01-13T10:26:37;24.80;;;3.72;;
68234;SDS011;55052;52.056;5.296;2023-01-13T10:29:20;17.90;;;3.55;;
68234;SDS011;55052;52.056;5.296;2023-01-13T10:31:53;21.65;;;2.95;;
68234;SDS011;55052;52.056;5.296;2023-01-13T10:34:21;22.10;;;3.65;;
68234;SDS011;55052;52.056;5.296;2023-01-13T10:36:56;15.10;;;3.55;;
68234;SDS011;55052;52.056;5.296;2023-01-13T10:39:37;19.98;;;3.00;;
68234;SDS011;55052;52.056;5.296;2023-01-13T10:42:09;16.35;;;2.90;;
68234;SDS011;55052;52.056;5.296;2023-01-13T10:44:46;16.10;;;2.80;;
68234;SDS011;55052;52.056;5.296;2023-01-13T10:47:27;16.77;;;3.08;;
68234;SDS011;55052;52.056;5.296;2023-01-13T10:50:09;19.92;;;3.97;;
68234;SDS011;55052;52.056;5.296;2023-01-13T10:52:59;17.67;;;2.80;;
68234;SDS011;55052;52.056;5.296;2023-01-13T10:58:12;23.45;;;5.10;;
68234;SDS011;55052;52.056;5.296;2023-01-13T11:00:42;11.90;;;3.17;;
68234;SDS011;55052;52.056;5.296;2023-01-13T11:03:19;22.92;;;4.95;;
68234;SDS011;55052;52.056;5.296;2023-01-13T11:05:49;24.05;;;3.33;;
68234;SDS011;55052;52.056;5.296;2023-01-13T11:08:22;16.10;;;3.10;;
68234;SDS011;55052;52.056;5.296;2023-01-13T11:10:53;15.35;;;2.80;;
68234;SDS011;55052;52.056;5.296;2023-01-13T11:13:40;18.75;;;4.72;;
68234;SDS011;55052;52.056;5.296;2023-01-13T11:16:26;18.80;;;2.92;;
68234;SDS011;55052;52.056;5.296;2023-01-13T11:18:57;15.73;;;3.08;;
68234;SDS011;55052;52.056;5.296;2023-01-13T11:21:49;14.52;;;3.17;;
68234;SDS011;55052;52.056;5.296;2023-01-13T11:36:10;17.70;;;2.92;;
68234;SDS011;55052;52.056;5.296;2023-01-13T11:38:57;15.82;;;3.47;;
68234;SDS011;55052;52.056;5.296;2023-01-13T11:41:43;10.75;;;2.40;;
68234;SDS011;55052;52.056;5.296;2023-01-13T11:44:47;14.35;;;2.72;;
68234;SDS011;55052;52.056;5.296;2023-01-13T11:47:38;19.00;;;2.75;;
68234;SDS011;55052;52.056;5.296;2023-01-13T11:50:11;14.65;;;2.35;;
68234;SDS011;55052;52.056;5.296;2023-01-13T11:58:33;16.55;;;2.58;;
68234;SDS011;55052;52.056;5.296;2023-01-13T12:07:19;20.73;;;3.13;;
68234;SDS011;55052;52.056;5.296;2023-01-13T12:12:44;24.67;;;3.53;;
68234;SDS011;55052;52.056;5.296;2023-01-13T12:16:19;14.98;;;2.38;;
68234;SDS011;55052;52.056;5.296;2023-01-13T12:21:28;18.42;;;3.05;;
68234;SDS011;55052;52.056;5.296;2023-01-13T12:26:42;14.15;;;2.47;;
68234;SDS011;55052;52.056;5.296;2023-01-13T12:29:15;15.02;;;2.63;;
68234;SDS011;55052;52.056;5.296;2023-01-13T12:31:46;21.27;;;3.30;;
68234;SDS011;55052;52.056;5.296;2023-01-13T12:34:26;14.98;;;3.40;;
68234;SDS011;55052;52.056;5.296;2023-01-13T12:45:53;11.05;;;2.35;;
68234;SDS011;55052;52.056;5.296;2023-01-13T12:51:21;13.73;;;2.50;;
68234;SDS011;55052;52.056;5.296;2023-01-13T12:53:54;19.58;;;2.95;;
68234;SDS011;55052;52.056;5.296;2023-01-13T12:56:43;14.77;;;2.50;;
68234;SDS011;55052;52.056;5.296;2023-01-13T13:01:47;10.10;;;2.58;;
68234;SDS011;55052;52.056;5.296;2023-01-13T13:04:19;13.48;;;2.35;;
68234;SDS011;55052;52.056;5.296;2023-01-13T13:07:08;19.42;;;2.95;;
68234;SDS011;55052;52.056;5.296;2023-01-13T13:09:50;15.27;;;2.50;;
68234;SDS011;55052;52.056;5.296;2023-01-13T13:15:33;11.43;;;2.35;;
68234;SDS011;55052;52.056;5.296;2023-01-13T13:37:18;13.35;;;2.13;;
68234;SDS011;55052;52.056;5.296;2023-01-13T13:40:22;17.17;;;2.75;;
68234;SDS011;55052;52.056;5.296;2023-01-13T13:43:10;13.98;;;2.10;;
68234;SDS011;55052;52.056;5.296;2023-01-13T13:45:58;17.02;;;3.63;;
68234;SDS011;55052;52.056;5.296;2023-01-13T13:48:51;15.15;;;2.60;;
68234;SDS011;55052;52.056;5.296;2023-01-13T13:51:57;11.30;;;2.13;;
68234;SDS011;55052;52.056;5.296;2023-01-13T13:54:28;11.60;;;2.33;;
68234;SDS011;55052;52.056;5.296;2023-01-13T13:56:56;11.23;;;2.17;;
68234;SDS011;55052;52.056;5.296;2023-01-13T13:59:25;13.40;;;2.47;;
68234;SDS011;55052;52.056;5.296;2023-01-13T14:01:56;12.55;;;2.17;;
68234;SDS011;55052;52.056;5.296;2023-01-13T14:04:27;12.43;;;2.25;;
68234;SDS011;55052;52.056;5.296;2023-01-13T14:07:00;15.15;;;2.70;;
68234;SDS011;55052;52.056;5.296;2023-01-13T14:09:38;14.65;;;2.65;;
68234;SDS011;55052;52.056;5.296;2023-01-13T14:12:17;14.05;;;2.92;;
68234;SDS011;55052;52.056;5.296;2023-01-13T14:14:48;19.75;;;3.28;;
68234;SDS011;55052;52.056;5.296;2023-01-13T14:22:27;12.13;;;2.05;;
68234;SDS011;55052;52.056;5.296;2023-01-13T14:24:54;12.25;;;2.30;;
68234;SDS011;55052;52.056;5.296;2023-01-13T14:27:23;13.52;;;2.45;;
68234;SDS011;55052;52.056;5.296;2023-01-13T14:29:53;10.27;;;2.28;;
68234;SDS011;55052;52.056;5.296;2023-01-13T14:34:53;17.45;;;2.63;;
68234;SDS011;55052;52.056;5.296;2023-01-13T14:37:21;14.57;;;2.55;;
68234;SDS011;55052;52.056;5.296;2023-01-13T14:40:00;11.48;;;2.50;;
68234;SDS011;55052;52.056;5.296;2023-01-13T14:42:27;12.50;;;2.45;;
68234;SDS011;55052;52.056;5.296;2023-01-13T14:44:56;10.40;;;2.75;;
68234;SDS011;55052;52.056;5.296;2023-01-13T14:47:27;17.75;;;2.88;;
68234;SDS011;55052;52.056;5.296;2023-01-13T14:50:20;17.20;;;2.67;;
68234;SDS011;55052;52.056;5.296;2023-01-13T14:52:53;13.20;;;2.17;;
68234;SDS011;55052;52.056;5.296;2023-01-13T14:55:34;13.40;;;2.83;;
68234;SDS011;55052;52.056;5.296;2023-01-13T14:58:22;14.60;;;1.95;;
68234;SDS011;55052;52.056;5.296;2023-01-13T15:03:51;14.65;;;2.85;;
68234;SDS011;55052;52.056;5.296;2023-01-13T15:06:20;11.93;;;2.42;;
68234;SDS011;55052;52.056;5.296;2023-01-13T15:08:49;15.15;;;2.67;;
68234;SDS011;55052;52.056;5.296;2023-01-13T15:11:18;11.38;;;2.40;;
68234;SDS011;55052;52.056;5.296;2023-01-13T15:13:58;11.32;;;2.10;;
68234;SDS011;55052;52.056;5.296;2023-01-13T15:16:27;14.13;;;2.33;;
68234;SDS011;55052;52.056;5.296;2023-01-13T15:18:55;18.83;;;2.65;;
68234;SDS011;55052;52.056;5.296;2023-01-13T15:21:21;12.35;;;2.58;;
68234;SDS011;55052;52.056;5.296;2023-01-13T15:23:49;10.90;;;2.20;;
68234;SDS011;55052;52.056;5.296;2023-01-13T15:26:20;12.88;;;2.75;;
68234;SDS011;55052;52.056;5.296;2023-01-13T15:28:49;13.40;;;2.70;;
68234;SDS011;55052;52.056;5.296;2023-01-13T15:31:17;16.10;;;2.85;;
68234;SDS011;55052;52.056;5.296;2023-01-13T15:33:44;14.18;;;2.55;;
68234;SDS011;55052;52.056;5.296;2023-01-13T15:36:45;16.30;;;2.50;;
68234;SDS011;55052;52.056;5.296;2023-01-13T15:39:05;13.93;;;2.63;;
68234;SDS011;55052;52.056;5.296;2023-01-13T15:41:35;20.75;;;3.22;;
68234;SDS011;55052;52.056;5.296;2023-01-13T15:44:20;11.88;;;2.45;;
68234;SDS011;55052;52.056;5.296;2023-01-13T15:47:06;11.95;;;2.90;;
68234;SDS011;55052;52.056;5.296;2023-01-13T15:49:44;11.90;;;2.60;;
68234;SDS011;55052;52.056;5.296;2023-01-13T15:54:46;10.43;;;2.50;;
68234;SDS011;55052;52.056;5.296;2023-01-13T15:59:54;11.77;;;2.38;;
68234;SDS011;55052;52.056;5.296;2023-01-13T16:02:23;16.33;;;2.42;;
68234;SDS011;55052;52.056;5.296;2023-01-13T16:04:50;12.45;;;2.40;;
68234;SDS011;55052;52.056;5.296;2023-01-13T16:07:19;12.70;;;2.92;;
68234;SDS011;55052;52.056;5.296;2023-01-13T16:09:47;16.48;;;2.50;;
68234;SDS011;55052;52.056;5.296;2023-01-13T16:12:14;13.38;;;2.58;;
68234;SDS011;55052;52.056;5.296;2023-01-13T16:14:41;12.70;;;3.28;;
68234;SDS011;55052;52.056;5.296;2023-01-13T16:17:13;14.13;;;3.03;;
68234;SDS011;55052;52.056;5.296;2023-01-13T16:19:41;15.90;;;2.70;;
68234;SDS011;55052;52.056;5.296;2023-01-13T16:22:12;11.75;;;2.22;;
68234;SDS011;55052;52.056;5.296;2023-01-13T16:24:40;17.60;;;3.22;;
68234;SDS011;55052;52.056;5.296;2023-01-13T16:27:15;17.08;;;2.55;;
68234;SDS011;55052;52.056;5.296;2023-01-13T16:29:44;12.63;;;2.92;;
68234;SDS011;55052;52.056;5.296;2023-01-13T16:32:11;13.15;;;2.40;;
68234;SDS011;55052;52.056;5.296;2023-01-13T16:34:39;8.20;;;2.53;;
68234;SDS011;55052;52.056;5.296;2023-01-13T16:37:19;13.55;;;2.60;;
68234;SDS011;55052;52.056;5.296;2023-01-13T16:39:48;11.00;;;2.30;;
68234;SDS011;55052;52.056;5.296;2023-01-13T16:42:15;13.25;;;2.78;;
68234;SDS011;55052;52.056;5.296;2023-01-13T16:44:42;11.55;;;3.00;;
68234;SDS011;55052;52.056;5.296;2023-01-13T16:47:13;20.27;;;3.13;;
68234;SDS011;55052;52.056;5.296;2023-01-13T16:49:41;15.73;;;2.83;;
68234;SDS011;55052;52.056;5.296;2023-01-13T16:52:07;10.48;;;3.15;;
68234;SDS011;55052;52.056;5.296;2023-01-13T16:54:34;11.50;;;2.75;;
68234;SDS011;55052;52.056;5.296;2023-01-13T16:57:01;7.55;;;2.20;;
68234;SDS011;55052;52.056;5.296;2023-01-13T16:59:28;15.85;;;3.13;;
68234;SDS011;55052;52.056;5.296;2023-01-13T17:01:55;13.80;;;2.17;;
68234;SDS011;55052;52.056;5.296;2023-01-13T17:04:22;6.25;;;2.30;;
68234;SDS011;55052;52.056;5.296;2023-01-13T17:06:53;6.25;;;2.03;;
68234;SDS011;55052;52.056;5.296;2023-01-13T17:09:21;8.48;;;1.85;;
68234;SDS011;55052;52.056;5.296;2023-01-13T17:11:49;5.38;;;1.75;;
68234;SDS011;55052;52.056;5.296;2023-01-13T17:14:17;7.75;;;1.90;;
68234;SDS011;55052;52.056;5.296;2023-01-13T17:16:46;7.22;;;1.70;;
68234;SDS011;55052;52.056;5.296;2023-01-13T17:19:13;10.23;;;3.00;;
68234;SDS011;55052;52.056;5.296;2023-01-13T17:21:40;7.47;;;1.85;;
68234;SDS011;55052;52.056;5.296;2023-01-13T17:24:07;10.15;;;2.47;;
68234;SDS011;55052;52.056;5.296;2023-01-13T17:26:38;4.80;;;1.67;;
68234;SDS011;55052;52.056;5.296;2023-01-13T17:29:08;5.78;;;2.03;;
68234;SDS011;55052;52.056;5.296;2023-01-13T17:31:38;9.02;;;1.80;;
68234;SDS011;55052;52.056;5.296;2023-01-13T17:34:05;6.32;;;1.90;;
68234;SDS011;55052;52.056;5.296;2023-01-13T17:36:32;4.70;;;1.50;;
68234;SDS011;55052;52.056;5.296;2023-01-13T17:38:58;4.68;;;1.85;;
68234;SDS011;55052;52.056;5.296;2023-01-13T17:41:25;6.53;;;1.60;;
68234;SDS011;55052;52.056;5.296;2023-01-13T17:43:52;6.55;;;2.00;;